Time;durP1;ratioP1;P1;durP2;ratioP2;P2;SDS_P1;SDS_P2;PMS_P1;PMS_P2;Temp;Humidity;BMP_temperature;BMP_pressure;BME280_temperature;BME280_humidity;BME280_pressure;Samples;Min_cycle;Max_cycle;Signal;HPM_P1;HPM_P2
2023/07/04 00:01:54;;;;;;;6.85;2.58;;;21.20;60.40;;;;;;10331738;28;20156;-57
2023/07/04 00:06:54;;;;;;;4.05;2.00;;;21.20;60.50;;;;;;10331586;28;20061;-58
2023/07/04 00:11:55;;;;;;;4.50;2.50;;;21.20;60.50;;;;;;10326271;28;20029;-58
2023/07/04 00:16:56;;;;;;;4.05;1.80;;;21.20;60.50;;;;;;10316387;28;20109;-58
2023/07/04 00:21:57;;;;;;;4.15;2.53;;;21.10;60.40;;;;;;10330770;28;20125;-58
2023/07/04 00:26:57;;;;;;;3.75;2.03;;;21.20;60.50;;;;;;10330875;28;20024;-58
2023/07/04 00:32:02;;;;;;;5.45;1.85;;;21.20;63.50;;;;;;10317210;28;20458;-57
2023/07/04 00:37:03;;;;;;;4.80;2.00;;;21.20;61.60;;;;;;10330426;28;20033;-57
2023/07/04 00:42:07;;;;;;;3.67;1.90;;;21.20;64.30;;;;;;10310159;28;20030;-57
2023/07/04 00:47:15;;;;;;;4.03;2.15;;;21.30;64.20;;;;;;10317277;28;20054;-58
2023/07/04 00:52:23;;;;;;;2.97;1.70;;;21.30;64.20;;;;;;10344459;28;20014;-58
2023/07/04 00:57:31;;;;;;;3.40;1.77;;;21.30;63.70;;;;;;10329522;28;20026;-57
2023/07/04 01:02:34;;;;;;;3.08;1.65;;;21.30;63.90;;;;;;10344818;28;20022;-57
2023/07/04 01:08:06;;;;;;;2.88;1.63;;;21.20;63.40;;;;;;10343581;28;20025;-57
2023/07/04 01:13:35;;;;;;;3.78;1.75;;;21.20;61.10;;;;;;10340447;28;20042;-58
2023/07/04 01:18:39;;;;;;;2.53;1.60;;;21.20;61.40;;;;;;10342971;28;20022;-57
2023/07/04 01:24:09;;;;;;;3.92;2.25;;;21.20;61.30;;;;;;10343534;28;20053;-57
2023/07/04 01:29:14;;;;;;;3.22;2.25;;;21.20;62.10;;;;;;10342851;28;20022;-58
2023/07/04 01:34:20;;;;;;;4.35;2.28;;;21.20;61.40;;;;;;10342401;28;20061;-56
2023/07/04 01:39:21;;;;;;;3.00;1.52;;;21.10;61.20;;;;;;10339086;28;20019;-58
2023/07/04 01:44:24;;;;;;;4.15;1.65;;;21.10;61.10;;;;;;10306789;28;20114;-57
2023/07/04 01:49:25;;;;;;;2.63;1.20;;;21.20;61.40;;;;;;10313376;28;20625;-57
2023/07/04 01:54:26;;;;;;;4.15;2.00;;;21.10;61.40;;;;;;10327163;28;20174;-57
2023/07/04 01:59:26;;;;;;;2.65;1.55;;;21.10;61.40;;;;;;10342128;28;20042;-58
2023/07/04 02:04:27;;;;;;;3.70;1.80;;;21.10;62.10;;;;;;10341687;28;20129;-58
2023/07/04 02:09:28;;;;;;;3.72;2.05;;;21.10;61.50;;;;;;10341498;28;20054;-58
2023/07/04 02:14:28;;;;;;;5.35;1.95;;;21.10;61.60;;;;;;10326455;28;20033;-58
2023/07/04 02:19:29;;;;;;;3.35;1.48;;;21.10;61.50;;;;;;10325294;28;20053;-57
2023/07/04 02:24:30;;;;;;;3.78;1.83;;;21.10;62.10;;;;;;10341108;28;20084;-58
2023/07/04 02:29:30;;;;;;;4.32;1.50;;;21.10;61.60;;;;;;10341038;28;20046;-58
2023/07/04 02:34:31;;;;;;;3.35;1.42;;;21.10;61.70;;;;;;10340370;28;20471;-57
2023/07/04 02:39:32;;;;;;;4.05;1.67;;;21.00;61.70;;;;;;10340740;28;20053;-57
2023/07/04 02:44:33;;;;;;;4.55;1.98;;;21.00;61.80;;;;;;10300611;28;20027;-58
2023/07/04 02:49:35;;;;;;;2.88;1.42;;;21.00;61.90;;;;;;10314153;28;20105;-57
2023/07/04 02:54:35;;;;;;;3.75;1.45;;;21.00;61.90;;;;;;10326525;28;20398;-57
2023/07/04 02:59:36;;;;;;;2.88;1.40;;;21.00;62.00;;;;;;10301120;28;20011;-56
2023/07/04 03:04:37;;;;;;;4.90;1.98;;;21.00;61.90;;;;;;10319468;28;20023;-57
2023/07/04 03:09:39;;;;;;;3.25;1.52;;;21.00;61.90;;;;;;10339256;28;20022;-58
2023/07/04 03:14:40;;;;;;;2.40;1.63;;;21.00;62.00;;;;;;10322774;28;20065;-57
2023/07/04 03:19:41;;;;;;;2.53;1.52;;;21.00;62.00;;;;;;10281324;28;20019;-57
2023/07/04 03:24:41;;;;;;;2.40;1.50;;;21.00;62.00;;;;;;10302579;28;20110;-57
2023/07/04 03:29:42;;;;;;;4.45;1.92;;;21.00;62.00;;;;;;10323930;28;20566;-57
2023/07/04 03:34:44;;;;;;;3.13;2.13;;;21.00;62.00;;;;;;10313306;28;20038;-58
2023/07/04 03:39:44;;;;;;;3.30;1.42;;;20.90;62.00;;;;;;10330095;28;20110;-58
2023/07/04 03:44:45;;;;;;;4.05;1.90;;;21.00;62.90;;;;;;10298765;28;20045;-57
2023/07/04 03:49:46;;;;;;;6.90;2.25;;;21.10;63.30;;;;;;10314737;28;20022;-57
2023/07/04 03:54:46;;;;;;;4.93;1.48;;;21.10;63.20;;;;;;10315429;28;20117;-57
2023/07/04 03:59:47;;;;;;;5.85;2.40;;;21.10;63.20;;;;;;10316804;28;20239;-57
2023/07/04 04:04:48;;;;;;;7.75;1.73;;;21.10;62.90;;;;;;10302657;28;20030;-57
2023/07/04 04:09:49;;;;;;;2.53;1.30;;;21.10;62.90;;;;;;10280132;28;20156;-56
2023/07/04 04:14:50;;;;;;;5.97;2.03;;;21.00;62.90;;;;;;10297870;28;20073;-57
2023/07/04 04:19:51;;;;;;;3.55;1.90;;;21.00;61.80;;;;;;10335432;28;20081;-57
2023/07/04 04:24:52;;;;;;;4.15;1.65;;;21.00;62.70;;;;;;10306985;28;20041;-57
2023/07/04 04:29:53;;;;;;;3.00;1.77;;;20.90;62.10;;;;;;10291725;28;20050;-56
2023/07/04 04:34:54;;;;;;;3.35;1.40;;;20.90;62.20;;;;;;10312075;28;20031;-56
2023/07/04 04:39:55;;;;;;;3.80;1.67;;;20.90;62.30;;;;;;10333140;28;20025;-57
2023/07/04 04:44:55;;;;;;;5.22;1.70;;;20.90;62.20;;;;;;10318578;28;20097;-56
2023/07/04 04:49:56;;;;;;;4.15;2.15;;;20.90;62.20;;;;;;10342536;28;20469;-56
2023/07/04 04:55:01;;;;;;;2.90;1.35;;;20.90;62.20;;;;;;10342409;28;20042;-57
2023/07/04 05:00:02;;;;;;;4.18;1.67;;;20.90;62.20;;;;;;10342306;28;20538;-56
2023/07/04 05:05:04;;;;;;;6.38;1.88;;;20.90;62.90;;;;;;10327449;28;20030;-56
2023/07/04 05:10:05;;;;;;;7.93;1.55;;;20.90;62.80;;;;;;10341897;28;20485;-56
2023/07/04 05:15:07;;;;;;;7.03;2.08;;;21.00;63.00;;;;;;10306659;28;20035;-56
2023/07/04 05:20:13;;;;;;;11.70;2.30;;;21.20;63.00;;;;;;10303680;28;20617;-56
2023/07/04 05:25:14;;;;;;;14.38;2.72;;;21.20;63.90;;;;;;10318332;28;20038;-55
2023/07/04 05:30:15;;;;;;;8.15;2.33;;;21.30;63.50;;;;;;10323930;28;20026;-55
2023/07/04 05:35:15;;;;;;;9.10;3.22;;;21.30;63.40;;;;;;10343444;28;20270;-56
2023/07/04 05:40:16;;;;;;;28.08;5.85;;;21.30;63.30;;;;;;10326997;28;20581;-55
2023/07/04 05:45:17;;;;;;;18.90;3.33;;;21.30;63.20;;;;;;10310570;28;20022;-55
2023/07/04 05:50:17;;;;;;;20.23;3.78;;;21.30;63.50;;;;;;10326961;28;20023;-56
2023/07/04 05:55:19;;;;;;;42.05;5.93;;;21.20;63.70;;;;;;10325628;28;20133;-54
2023/07/04 06:00:19;;;;;;;25.20;4.22;;;21.20;63.70;;;;;;10326205;28;20382;-55
2023/07/04 06:05:20;;;;;;;52.72;6.05;;;21.30;63.40;;;;;;10302529;28;20037;-49
2023/07/04 06:10:22;;;;;;;27.33;4.93;;;21.20;63.80;;;;;;10307806;28;20723;-54
2023/07/04 06:15:23;;;;;;;22.92;4.93;;;21.20;63.70;;;;;;10333078;28;20030;-55
2023/07/04 06:20:23;;;;;;;15.07;4.28;;;21.20;63.60;;;;;;10335238;28;20043;-55
2023/07/04 06:25:25;;;;;;;19.67;4.82;;;21.20;63.70;;;;;;10315419;28;20628;-56
2023/07/04 06:30:29;;;;;;;17.10;4.28;;;21.10;63.90;;;;;;10315361;28;20033;-56
2023/07/04 06:35:31;;;;;;;14.50;4.28;;;21.10;64.10;;;;;;10309089;28;20122;-55
2023/07/04 06:40:31;;;;;;;15.32;3.47;;;21.10;64.10;;;;;;10320446;28;20017;-55
2023/07/04 06:45:33;;;;;;;12.15;3.22;;;21.10;64.10;;;;;;10325696;28;20496;-55
2023/07/04 06:50:34;;;;;;;14.15;3.22;;;21.00;63.90;;;;;;10340625;28;20412;-55
2023/07/04 06:55:35;;;;;;;23.15;4.22;;;21.00;63.80;;;;;;10340387;28;20062;-56
2023/07/04 07:00:35;;;;;;;11.82;3.15;;;21.00;63.80;;;;;;10340139;28;20034;-56
2023/07/04 07:05:40;;;;;;;14.98;4.72;;;21.00;63.90;;;;;;10339904;28;20193;-55
2023/07/04 07:10:55;;;;;;;13.20;3.53;;;21.00;64.00;;;;;;10317435;28;20391;-56
2023/07/04 07:16:10;;;;;;;13.77;3.45;;;21.10;64.00;;;;;;10318100;28;20030;-58
2023/07/04 07:21:15;;;;;;;16.45;4.38;;;21.10;64.10;;;;;;10323798;28;20042;-55
2023/07/04 07:26:20;;;;;;;11.95;4.05;;;21.10;63.90;;;;;;10327523;28;20069;-58
2023/07/04 07:31:23;;;;;;;14.63;5.32;;;21.10;64.00;;;;;;10317091;28;20045;-57
2023/07/04 07:36:38;;;;;;;9.20;3.90;;;21.00;63.90;;;;;;10338912;28;20034;-57
2023/07/04 07:41:43;;;;;;;11.02;3.33;;;21.00;64.00;;;;;;10320382;28;20038;-56
2023/07/04 07:46:45;;;;;;;12.68;4.10;;;21.10;64.10;;;;;;10306231;28;20417;-56
2023/07/04 07:51:45;;;;;;;12.45;3.58;;;21.10;63.90;;;;;;10305243;28;20597;-56
2023/07/04 07:56:48;;;;;;;12.82;3.67;;;21.10;64.00;;;;;;10336547;28;20027;-56
2023/07/04 08:01:49;;;;;;;7.80;3.45;;;21.00;64.00;;;;;;10336555;28;20046;-56
2023/07/04 08:06:49;;;;;;;10.13;3.53;;;21.00;64.10;;;;;;10336428;28;20121;-56
2023/07/04 08:11:50;;;;;;;8.27;3.50;;;21.00;64.20;;;;;;10321365;28;20058;-56
2023/07/04 08:16:53;;;;;;;6.22;2.85;;;21.00;64.10;;;;;;10318463;28;20061;-55
2023/07/04 08:21:54;;;;;;;6.78;3.42;;;21.00;64.10;;;;;;10316130;28;20073;-56
2023/07/04 08:26:56;;;;;;;6.95;2.70;;;21.00;64.00;;;;;;10343882;28;20026;-56
2023/07/04 08:31:57;;;;;;;6.32;2.83;;;21.00;63.80;;;;;;10343440;28;20033;-56
2023/07/04 08:36:58;;;;;;;8.57;3.13;;;21.00;63.80;;;;;;10327380;28;20493;-56
2023/07/04 08:42:02;;;;;;;9.50;2.60;;;21.00;63.80;;;;;;10308818;28;20018;-56
2023/07/04 08:47:03;;;;;;;7.53;2.80;;;21.00;63.90;;;;;;10314823;28;20046;-56
2023/07/04 08:52:44;;;;;;;5.18;2.60;;;21.00;63.70;;;;;;10326883;28;20022;-56
2023/07/04 08:57:57;;;;;;;8.93;3.75;;;21.00;63.70;;;;;;10322378;28;20432;-56
2023/07/04 09:03:41;;;;;;;7.47;2.47;;;21.00;63.60;;;;;;10302637;28;20641;-56
2023/07/04 09:08:59;;;;;;;7.35;2.83;;;21.00;63.50;;;;;;10299922;28;20026;-57
2023/07/04 09:14:14;;;;;;;7.95;3.03;;;21.00;63.50;;;;;;10306706;28;20047;-56
2023/07/04 09:19:21;;;;;;;6.53;2.25;;;21.00;63.40;;;;;;10319335;28;20035;-56
2023/07/04 09:24:22;;;;;;;4.85;2.10;;;21.10;63.30;;;;;;10326239;28;20038;-57
2023/07/04 09:29:24;;;;;;;6.03;2.83;;;21.10;63.10;;;;;;10341228;28;20480;-56
2023/07/04 09:34:51;;;;;;;7.35;2.28;;;21.20;62.90;;;;;;10324694;28;20034;-56
2023/07/04 09:39:59;;;;;;;6.82;3.20;;;21.10;62.50;;;;;;10337446;28;20050;-56
2023/07/04 09:45:07;;;;;;;6.82;2.70;;;21.10;62.40;;;;;;10310427;28;20030;-56
2023/07/04 09:50:32;;;;;;;4.90;2.17;;;21.10;62.30;;;;;;10310466;28;20438;-56
2023/07/04 09:55:32;;;;;;;8.73;2.70;;;21.20;62.30;;;;;;10304308;28;20026;-57
2023/07/04 10:00:33;;;;;;;5.38;2.17;;;21.20;62.20;;;;;;10340428;28;20015;-57
2023/07/04 10:05:37;;;;;;;9.10;2.65;;;21.20;62.10;;;;;;10340022;28;20081;-56
2023/07/04 10:10:50;;;;;;;4.57;2.50;;;21.20;62.10;;;;;;10339525;28;20018;-57
2023/07/04 10:15:52;;;;;;;5.32;2.60;;;21.20;62.10;;;;;;10324833;28;20477;-56
2023/07/04 10:20:56;;;;;;;6.00;2.00;;;21.20;61.80;;;;;;10339271;28;20129;-55
2023/07/04 10:26:00;;;;;;;4.60;2.10;;;21.20;61.80;;;;;;10311567;28;20026;-56
2023/07/04 10:31:15;;;;;;;3.05;1.95;;;21.30;61.80;;;;;;10338766;28;20105;-55
2023/07/04 10:36:31;;;;;;;4.63;2.40;;;21.20;61.80;;;;;;10323798;28;20038;-55
2023/07/04 10:41:45;;;;;;;3.28;1.83;;;21.20;61.80;;;;;;10321549;28;20011;-57
2023/07/04 10:47:03;;;;;;;5.35;2.20;;;21.30;61.80;;;;;;10318298;28;20401;-57
2023/07/04 10:52:14;;;;;;;3.40;1.60;;;21.30;61.70;;;;;;10324851;28;20030;-57
2023/07/04 10:57:26;;;;;;;7.82;2.38;;;21.30;61.60;;;;;;10336768;28;20038;-57
2023/07/04 11:02:37;;;;;;;4.30;2.10;;;21.30;61.70;;;;;;10321538;28;20065;-61
2023/07/04 11:07:40;;;;;;;3.95;1.70;;;21.30;61.40;;;;;;10322404;28;20077;-55
2023/07/04 11:12:42;;;;;;;6.18;2.85;;;21.40;61.30;;;;;;10337125;28;20030;-57
2023/07/04 11:17:44;;;;;;;3.22;1.85;;;21.40;61.40;;;;;;10320860;28;20010;-57
2023/07/04 11:22:57;;;;;;;7.35;1.65;;;21.40;61.00;;;;;;10336499;28;20050;-57
2023/07/04 11:28:36;;;;;;;4.22;2.13;;;21.30;61.00;;;;;;10337784;28;20646;-56
2023/07/04 11:33:42;;;;;;;18.03;3.00;;;21.30;61.10;;;;;;10322574;28;20035;-57
2023/07/04 11:38:51;;;;;;;5.65;2.20;;;21.30;61.10;;;;;;10310676;28;20023;-57
2023/07/04 11:43:53;;;;;;;5.10;1.77;;;21.30;60.80;;;;;;10309518;28;20061;-57
2023/07/04 11:48:57;;;;;;;4.70;2.35;;;21.30;61.10;;;;;;10336638;28;20018;-55
2023/07/04 11:54:01;;;;;;;7.72;2.45;;;21.30;60.70;;;;;;10339332;28;20038;-60
2023/07/04 11:59:10;;;;;;;5.63;2.13;;;21.30;60.90;;;;;;10312910;28;20069;-56
2023/07/04 12:04:11;;;;;;;3.85;1.63;;;21.30;60.80;;;;;;10329936;28;20030;-57
2023/07/04 12:09:22;;;;;;;4.60;1.80;;;21.30;60.90;;;;;;10344240;28;20025;-57
2023/07/04 12:14:24;;;;;;;5.32;2.70;;;21.30;61.00;;;;;;10343289;28;20125;-56
2023/07/04 12:19:25;;;;;;;9.07;3.20;;;21.30;60.90;;;;;;10327385;28;20069;-60
2023/07/04 12:24:26;;;;;;;11.18;2.50;;;21.40;61.40;;;;;;10309758;28;20562;-56
2023/07/04 12:29:28;;;;;;;15.20;3.13;;;21.40;61.30;;;;;;10305066;28;20026;-56
2023/07/04 12:34:28;;;;;;;27.30;4.43;;;21.40;61.60;;;;;;10343364;28;20034;-56
2023/07/04 12:39:30;;;;;;;22.48;4.57;;;21.30;61.90;;;;;;10328175;28;20034;-56
2023/07/04 12:44:38;;;;;;;21.67;5.40;;;21.40;61.90;;;;;;10316672;28;20088;-56
2023/07/04 12:49:39;;;;;;;9.03;3.70;;;21.50;63.10;;;;;;10326343;28;20023;-56
2023/07/04 12:54:40;;;;;;;12.20;3.60;;;21.50;63.00;;;;;;10342921;28;20026;-56
2023/07/04 12:59:42;;;;;;;17.35;3.92;;;21.50;62.80;;;;;;10342585;28;20018;-55
2023/07/04 13:04:42;;;;;;;8.05;2.90;;;21.40;62.60;;;;;;10326853;28;20069;-56
2023/07/04 13:09:43;;;;;;;9.43;2.55;;;21.40;62.50;;;;;;10327702;28;20027;-56
2023/07/04 13:14:44;;;;;;;12.90;2.35;;;21.40;62.40;;;;;;10341797;28;20030;-56
2023/07/04 13:19:45;;;;;;;9.75;2.88;;;21.40;62.40;;;;;;10326560;28;20138;-57
2023/07/04 13:24:47;;;;;;;9.15;2.65;;;21.40;62.30;;;;;;10312092;28;20034;-56
2023/07/04 13:29:58;;;;;;;5.60;2.40;;;21.40;62.30;;;;;;10295821;28;20035;-56
2023/07/04 13:35:18;;;;;;;11.10;2.90;;;21.40;61.90;;;;;;10314895;28;20034;-56
2023/07/04 13:40:19;;;;;;;6.40;1.90;;;21.40;61.90;;;;;;10333048;28;20441;-58
2023/07/04 13:45:20;;;;;;;7.78;2.45;;;21.40;61.90;;;;;;10310928;28;20033;-57
2023/07/04 13:50:21;;;;;;;10.77;2.50;;;21.40;61.80;;;;;;10284268;28;20046;-57
2023/07/04 13:55:21;;;;;;;5.05;2.08;;;21.40;61.80;;;;;;10301948;28;20026;-56
2023/07/04 14:00:23;;;;;;;5.40;1.75;;;21.40;61.70;;;;;;10340036;28;20430;-57
2023/07/04 14:05:23;;;;;;;8.00;2.42;;;21.40;61.50;;;;;;10323860;28;20117;-56
2023/07/04 14:10:24;;;;;;;8.50;2.03;;;21.40;61.60;;;;;;10325027;28;20037;-56
2023/07/04 14:15:25;;;;;;;4.18;1.80;;;21.40;61.60;;;;;;10338464;28;20030;-56
2023/07/04 14:20:25;;;;;;;7.28;4.32;;;21.40;61.70;;;;;;10337885;28;20053;-48
2023/07/04 14:25:26;;;;;;;7.93;3.25;;;21.40;61.60;;;;;;10322760;28;20026;-57
2023/07/04 14:30:27;;;;;;;6.80;2.50;;;21.40;61.20;;;;;;10323627;28;20030;-56
2023/07/04 14:35:27;;;;;;;6.95;2.30;;;21.40;61.40;;;;;;10338731;28;20608;-56
2023/07/04 14:40:30;;;;;;;7.50;2.22;;;21.40;61.30;;;;;;10292566;28;20414;-56
2023/07/04 14:45:31;;;;;;;4.95;1.48;;;21.40;61.30;;;;;;10323473;28;20026;-57
2023/07/04 14:50:32;;;;;;;11.00;2.42;;;21.40;61.30;;;;;;10307224;28;20117;-56
2023/07/04 14:55:32;;;;;;;6.82;1.88;;;21.40;61.30;;;;;;10296177;28;20030;-57
2023/07/04 15:00:39;;;;;;;3.55;1.80;;;21.40;61.50;;;;;;10286738;28;20104;-56
2023/07/04 15:05:40;;;;;;;5.93;2.03;;;21.30;61.30;;;;;;10289234;28;20382;-56
2023/07/04 15:10:44;;;;;;;5.07;1.90;;;21.30;61.40;;;;;;10306890;28;20037;-56
2023/07/04 15:15:46;;;;;;;5.35;2.10;;;21.30;61.50;;;;;;10314907;28;20088;-57
2023/07/04 15:20:47;;;;;;;5.22;1.50;;;21.30;61.60;;;;;;10300546;28;20118;-57
2023/07/04 15:25:57;;;;;;;2.88;1.40;;;21.20;61.60;;;;;;10293383;28;20150;-57
2023/07/04 15:30:58;;;;;;;3.78;1.70;;;21.30;62.30;;;;;;10311115;28;20022;-56
2023/07/04 15:35:59;;;;;;;9.48;3.00;;;21.20;61.70;;;;;;10334770;28;20085;-56
2023/07/04 15:41:02;;;;;;;3.67;1.63;;;21.20;61.60;;;;;;10298041;28;20023;-56
2023/07/04 15:46:10;;;;;;;5.15;1.75;;;21.20;61.70;;;;;;10296891;28;20027;-57
2023/07/04 15:51:19;;;;;;;15.57;4.07;;;21.20;61.60;;;;;;10308380;28;20034;-57
2023/07/04 15:56:22;;;;;;;395.63;183.52;;;21.20;61.50;;;;;;10306737;28;20027;-56
2023/07/04 16:01:22;;;;;;;123.07;54.97;;;21.30;63.50;;;;;;10313246;28;20717;-55
2023/07/04 16:06:23;;;;;;;86.70;35.58;;;21.30;63.90;;;;;;10317923;28;20102;-56
2023/07/04 16:11:24;;;;;;;65.22;27.40;;;21.40;62.60;;;;;;10320778;28;20079;-56
2023/07/04 16:16:26;;;;;;;42.25;18.73;;;21.40;61.90;;;;;;10316651;28;20442;-52
2023/07/04 16:21:27;;;;;;;35.05;14.00;;;21.50;66.60;;;;;;10297084;28;20425;-56
2023/07/04 16:26:28;;;;;;;30.58;12.55;;;21.60;64.20;;;;;;10314892;28;20064;-55
2023/07/04 16:31:28;;;;;;;34.55;11.90;;;21.80;64.00;;;;;;10327354;28;20034;-55
2023/07/04 16:36:29;;;;;;;34.53;14.52;;;21.80;63.40;;;;;;10320223;28;20080;-56
2023/07/04 16:41:30;;;;;;;33.17;14.00;;;21.70;63.30;;;;;;10321582;28;20025;-56
2023/07/04 16:46:30;;;;;;;31.85;11.98;;;21.60;63.00;;;;;;10326297;28;20106;-56
2023/07/04 16:51:31;;;;;;;36.75;12.70;;;21.50;63.40;;;;;;10306417;28;20402;-57
2023/07/04 16:56:32;;;;;;;40.28;12.05;;;21.50;63.70;;;;;;10323259;28;20030;-57
2023/07/04 17:01:32;;;;;;;31.98;12.15;;;21.50;63.80;;;;;;10321585;28;20018;-56
2023/07/04 17:06:33;;;;;;;30.48;11.70;;;21.50;64.10;;;;;;10331210;28;20315;-57
2023/07/04 17:11:34;;;;;;;44.47;13.98;;;21.50;64.40;;;;;;10311790;28;20034;-57
2023/07/04 17:16:35;;;;;;;38.90;11.40;;;21.50;64.20;;;;;;10321647;28;20091;-57
2023/07/04 17:21:35;;;;;;;34.90;10.80;;;21.50;64.10;;;;;;10318813;28;20444;-57
2023/07/04 17:26:36;;;;;;;33.38;12.25;;;21.40;64.20;;;;;;10321838;28;20014;-57
2023/07/04 17:31:37;;;;;;;33.17;10.98;;;21.40;64.30;;;;;;10315078;28;20014;-57
2023/07/04 17:36:37;;;;;;;30.35;10.27;;;21.40;64.40;;;;;;10312808;28;20042;-57
2023/07/04 17:41:38;;;;;;;27.15;10.70;;;21.40;64.30;;;;;;10321242;28;20448;-57
2023/07/04 17:46:39;;;;;;;36.97;10.52;;;21.40;64.20;;;;;;10295866;28;20071;-58
2023/07/04 17:51:39;;;;;;;30.33;9.23;;;21.40;64.90;;;;;;10325985;28;20052;-58
2023/07/04 17:56:40;;;;;;;26.50;9.57;;;21.40;64.40;;;;;;10323633;28;20121;-57
2023/07/04 18:01:41;;;;;;;35.80;9.15;;;21.40;64.50;;;;;;10328918;28;20018;-57
2023/07/04 18:06:42;;;;;;;25.63;8.70;;;21.40;64.60;;;;;;10317384;28;20520;-58
2023/07/04 18:11:42;;;;;;;28.40;9.07;;;21.40;64.70;;;;;;10336501;28;20380;-57
2023/07/04 18:16:43;;;;;;;16.20;9.10;;;21.40;64.30;;;;;;10316375;28;20117;-56
2023/07/04 18:21:44;;;;;;;33.88;10.98;;;21.40;65.80;;;;;;10306008;28;20125;-57
2023/07/04 18:26:44;;;;;;;26.48;9.35;;;21.40;64.60;;;;;;10318906;28;20544;-57
2023/07/04 18:31:45;;;;;;;24.02;9.60;;;21.50;65.00;;;;;;10316153;28;20113;-57
2023/07/04 18:36:46;;;;;;;22.73;9.05;;;21.40;64.40;;;;;;10322706;28;20473;-57
2023/07/04 18:41:47;;;;;;;20.60;9.13;;;21.40;64.50;;;;;;10317166;28;20136;-57
2023/07/04 18:46:47;;;;;;;19.40;7.68;;;21.40;64.60;;;;;;10319103;28;20037;-57
2023/07/04 18:51:48;;;;;;;21.27;9.30;;;21.40;64.70;;;;;;10309675;28;20022;-57
2023/07/04 18:56:49;;;;;;;21.70;7.47;;;21.40;64.80;;;;;;10334114;28;20621;-57
2023/07/04 19:07:00;;;;;;;27.35;8.23;;;21.40;64.90;;;;;;10867307;22;20202;-56
2023/07/04 19:12:00;;;;;;;19.27;7.43;;;21.40;64.90;;;;;;10296279;28;20477;-57
2023/07/04 19:17:01;;;;;;;18.35;7.28;;;21.40;65.00;;;;;;10291788;28;20041;-57
2023/07/04 19:22:07;;;;;;;22.08;8.18;;;21.40;65.00;;;;;;10293900;28;20027;-57
2023/07/04 19:27:11;;;;;;;25.77;8.27;;;21.30;64.90;;;;;;10311848;28;20033;-58
2023/07/04 19:32:14;;;;;;;15.60;6.75;;;21.40;65.10;;;;;;10323077;28;20026;-57
2023/07/04 19:37:14;;;;;;;14.60;7.32;;;21.40;64.90;;;;;;10323146;28;20037;-58
2023/07/04 19:42:15;;;;;;;14.05;6.90;;;21.40;65.20;;;;;;10299364;28;20393;-58
2023/07/04 19:47:16;;;;;;;15.38;7.38;;;21.40;65.00;;;;;;10283602;28;20029;-58
2023/07/04 19:52:17;;;;;;;12.88;5.70;;;21.30;64.90;;;;;;10296950;28;20567;-58
2023/07/04 19:57:17;;;;;;;12.43;6.43;;;21.30;64.90;;;;;;10283885;28;20122;-57
2023/07/04 20:02:19;;;;;;;14.05;5.32;;;21.30;65.00;;;;;;10283048;28;20139;-58
2023/07/04 20:07:19;;;;;;;13.55;6.60;;;21.30;64.90;;;;;;10282612;28;20051;-57
2023/07/04 20:12:20;;;;;;;9.63;5.75;;;21.20;64.80;;;;;;10284726;28;20027;-58
2023/07/04 20:17:21;;;;;;;15.77;5.47;;;21.20;64.80;;;;;;10288881;28;20034;-56
2023/07/04 20:22:21;;;;;;;15.30;6.40;;;21.20;65.00;;;;;;10290723;28;20106;-57
2023/07/04 20:27:22;;;;;;;10.43;5.40;;;21.20;64.90;;;;;;10290426;28;20114;-58
2023/07/04 20:32:23;;;;;;;13.32;5.43;;;21.20;65.00;;;;;;10290238;28;20027;-58
2023/07/04 20:37:23;;;;;;;11.27;4.97;;;21.20;64.90;;;;;;10311311;28;20489;-58
2023/07/04 20:42:24;;;;;;;12.10;5.40;;;21.20;64.80;;;;;;10309600;28;20019;-58
2023/07/04 20:47:25;;;;;;;8.43;4.55;;;21.20;65.00;;;;;;10289726;28;20026;-58
2023/07/04 20:52:27;;;;;;;9.95;5.43;;;21.20;64.90;;;;;;10290114;28;20113;-59
2023/07/04 20:57:28;;;;;;;9.32;4.78;;;21.20;64.80;;;;;;10289212;28;20139;-56
2023/07/04 21:02:29;;;;;;;8.40;4.28;;;21.20;64.80;;;;;;10289612;28;20023;-57
2023/07/04 21:07:30;;;;;;;8.18;4.22;;;21.20;64.90;;;;;;10288653;28;20041;-58
2023/07/04 21:12:30;;;;;;;9.60;4.88;;;21.10;64.80;;;;;;10287212;28;20027;-58
2023/07/04 21:17:31;;;;;;;8.38;4.45;;;21.20;64.70;;;;;;10288582;28;20158;-56
2023/07/04 21:22:32;;;;;;;10.52;4.50;;;21.10;64.70;;;;;;10286323;28;20023;-58
2023/07/04 21:27:33;;;;;;;9.00;4.13;;;21.10;64.60;;;;;;10286819;28;20031;-58
2023/07/04 21:32:34;;;;;;;7.80;4.07;;;21.10;64.70;;;;;;10287140;28;20042;-56
2023/07/04 21:37:34;;;;;;;11.52;4.95;;;21.10;64.80;;;;;;10325285;28;20081;-57
2023/07/04 21:42:35;;;;;;;6.28;3.60;;;21.10;64.80;;;;;;10307563;28;20058;-58
2023/07/04 21:47:36;;;;;;;7.60;3.88;;;21.10;64.80;;;;;;10287101;28;20440;-58
2023/07/04 21:52:38;;;;;;;7.60;3.13;;;21.10;64.80;;;;;;10287025;28;20062;-58
2023/07/04 21:57:39;;;;;;;8.63;4.13;;;21.10;64.60;;;;;;10286762;28;20034;-56
2023/07/04 22:02:39;;;;;;;6.70;4.20;;;21.10;64.60;;;;;;10286251;28;20105;-57
2023/07/04 22:07:40;;;;;;;5.57;3.22;;;21.10;64.60;;;;;;10294700;28;20150;-58
2023/07/04 22:12:41;;;;;;;7.82;4.20;;;21.10;64.60;;;;;;10290349;28;20014;-58
2023/07/04 22:17:41;;;;;;;6.97;3.47;;;21.00;64.50;;;;;;10285733;28;20030;-58
2023/07/04 22:22:42;;;;;;;7.07;3.50;;;21.00;64.40;;;;;;10286019;28;20058;-58
2023/07/04 22:27:43;;;;;;;6.47;2.95;;;21.00;64.40;;;;;;10286147;28;20019;-58
2023/07/04 22:32:43;;;;;;;6.35;3.55;;;21.00;64.40;;;;;;10288128;28;20110;-58
2023/07/04 22:37:46;;;;;;;7.10;3.50;;;21.00;64.50;;;;;;10295215;28;20133;-56
2023/07/04 22:42:46;;;;;;;5.88;3.40;;;21.00;64.40;;;;;;10305423;28;20109;-58
2023/07/04 22:47:47;;;;;;;7.78;3.47;;;21.00;64.40;;;;;;10285273;28;20150;-57
2023/07/04 22:52:48;;;;;;;5.28;3.25;;;21.00;64.40;;;;;;10285019;28;20111;-58
2023/07/04 22:57:49;;;;;;;7.97;3.85;;;21.00;64.30;;;;;;10297104;28;20117;-56
2023/07/04 23:02:49;;;;;;;6.05;3.75;;;21.00;64.40;;;;;;10294637;28;20097;-58
2023/07/04 23:07:50;;;;;;;3.85;3.08;;;21.00;64.20;;;;;;10326730;28;20564;-58
2023/07/04 23:12:51;;;;;;;5.32;3.60;;;21.00;64.20;;;;;;10324630;28;20018;-58
2023/07/04 23:17:51;;;;;;;5.57;3.33;;;21.00;64.10;;;;;;10323072;28;20489;-58
2023/07/04 23:22:52;;;;;;;6.00;3.45;;;21.00;64.10;;;;;;10324299;28;20102;-57
2023/07/04 23:27:52;;;;;;;4.38;3.25;;;20.90;64.00;;;;;;10324130;28;20106;-58
2023/07/04 23:32:53;;;;;;;6.72;3.78;;;21.00;64.00;;;;;;10322957;28;20113;-58
2023/07/04 23:37:54;;;;;;;5.43;3.55;;;21.00;64.10;;;;;;10293037;28;20461;-56
2023/07/04 23:42:54;;;;;;;5.28;3.22;;;21.00;64.10;;;;;;10303898;28;20094;-58
2023/07/04 23:47:55;;;;;;;5.97;3.50;;;20.90;64.00;;;;;;10288018;28;20402;-58
2023/07/04 23:52:56;;;;;;;5.03;3.47;;;20.90;63.90;;;;;;10291764;28;20110;-58
2023/07/04 23:57:56;;;;;;;6.40;4.03;;;20.90;63.90;;;;;;10291810;28;20117;-57
